<?xml version="1.0" encoding="UTF-8" standalone="no" ?>
<gpx xmlns="http://www.topografix.com/GPX/1/1" xmlns:xsi="http://www.w3.org/2001/XMLSchema-instance" xsi:schemaLocation="http://www.topografix.com/GPX/1/1 http://www.topografix.com/GPX/1/1/gpx.xsd" version="1.1" creator="VisuGPX - https://www.visugpx.com">
  <metadata>
    <name>Cucugnan - château de Quéribus</name>
    <desc><![CDATA[2017-07 - Cucugnan - château de Quéribus

[b]album[/b] : [url]https://goo.gl/photos/Cbj4BWAziFhBjVrr8[/url]
[img]https://2.bp.blogspot.com/-2Y3PKQoGsa4/WVpinG3t_FI/AAAAAAAAV4A/Y7heXIY8fBo-juVzmVdp9Y2iEC4vrOplACLcBGAs/s1600/2017-07-02_cucugnan_queribus.JPG[/img]
[b]Idées de randonnées dans la même région[/b]
Parcours : [url]https://www.visugpx.com/membres/24856/littoral/[/url]
Photos : [url]https://jcvertygo.blogspot.com/p/littoral.html[/url]]]></desc>
  </metadata>
  <trk>
    <name><![CDATA[Cucugnan - château de Quéribus_1]]></name>
    <trkseg>
      <trkpt lat="42.85094" lon="2.60539">
        <ele>284.5</ele>
        <time>2017-07-02T12:09:19Z</time>
      </trkpt>
      <trkpt lat="42.85095" lon="2.60539">
        <ele>284.5</ele>
        <time>2017-07-02T12:09:24Z</time>
      </trkpt>
      <trkpt lat="42.85092" lon="2.60537">
        <ele>284.5</ele>
        <time>2017-07-02T12:09:29Z</time>
      </trkpt>
      <trkpt lat="42.85092" lon="2.60537">
        <ele>284.5</ele>
        <time>2017-07-02T12:09:34Z</time>
      </trkpt>
      <trkpt lat="42.85097" lon="2.60537">
        <ele>279.08612611168</ele>
        <time>2017-07-02T12:09:44Z</time>
      </trkpt>
      <trkpt lat="42.85099" lon="2.60542">
        <ele>279.08612611168</ele>
        <time>2017-07-02T12:09:49Z</time>
      </trkpt>
      <trkpt lat="42.851" lon="2.60548">
        <ele>279.08612611168</ele>
        <time>2017-07-02T12:09:54Z</time>
      </trkpt>
      <trkpt lat="42.851" lon="2.60555">
        <ele>280.30125512018</ele>
        <time>2017-07-02T12:09:59Z</time>
      </trkpt>
      <trkpt lat="42.85101" lon="2.60561">
        <ele>280.30125512018</ele>
        <time>2017-07-02T12:10:04Z</time>
      </trkpt>
      <trkpt lat="42.85101" lon="2.60566">
        <ele>280.30125512018</ele>
        <time>2017-07-02T12:10:09Z</time>
      </trkpt>
      <trkpt lat="42.85101" lon="2.60572">
        <ele>281.46182917787</ele>
        <time>2017-07-02T12:10:14Z</time>
      </trkpt>
      <trkpt lat="42.85101" lon="2.60577">
        <ele>281.46182917787</ele>
        <time>2017-07-02T12:10:19Z</time>
      </trkpt>
      <trkpt lat="42.85102" lon="2.60583">
        <ele>281.46182917787</ele>
        <time>2017-07-02T12:10:24Z</time>
      </trkpt>
      <trkpt lat="42.85102" lon="2.60591">
        <ele>282.4935194497</ele>
        <time>2017-07-02T12:10:29Z</time>
      </trkpt>
      <trkpt lat="42.85103" lon="2.60599">
        <ele>282.4935194497</ele>
        <time>2017-07-02T12:10:34Z</time>
      </trkpt>
      <trkpt lat="42.85105" lon="2.60605">
        <ele>283.46380426126</ele>
        <time>2017-07-02T12:10:39Z</time>
      </trkpt>
      <trkpt lat="42.85104" lon="2.60612">
        <ele>283.46380426126</ele>
        <time>2017-07-02T12:10:44Z</time>
      </trkpt>
      <trkpt lat="42.85105" lon="2.60618">
        <ele>284.23213764591</ele>
        <time>2017-07-02T12:10:49Z</time>
      </trkpt>
      <trkpt lat="42.85106" lon="2.60623">
        <ele>284.23213764591</ele>
        <time>2017-07-02T12:10:54Z</time>
      </trkpt>
      <trkpt lat="42.8511" lon="2.6063">
        <ele>284.6218020183</ele>
        <time>2017-07-02T12:11:01Z</time>
      </trkpt>
      <trkpt lat="42.85114" lon="2.60648">
        <ele>284.57428122975</ele>
        <time>2017-07-02T12:11:26Z</time>
      </trkpt>
      <trkpt lat="42.85116" lon="2.60675">
        <ele>284.22047294595</ele>
        <time>2017-07-02T12:12:17Z</time>
      </trkpt>
      <trkpt lat="42.85106" lon="2.60714">
        <ele>282.67053123358</ele>
        <time>2017-07-02T12:12:27Z</time>
      </trkpt>
      <trkpt lat="42.85104" lon="2.60714">
        <ele>282.67053123358</ele>
        <time>2017-07-02T12:12:29Z</time>
      </trkpt>
      <trkpt lat="42.85099" lon="2.60716">
        <ele>282.67053123358</ele>
        <time>2017-07-02T12:12:34Z</time>
      </trkpt>
      <trkpt lat="42.85094" lon="2.6072">
        <ele>281.00313264373</ele>
        <time>2017-07-02T12:12:39Z</time>
      </trkpt>
      <trkpt lat="42.8509" lon="2.60725">
        <ele>281.00313264373</ele>
        <time>2017-07-02T12:12:44Z</time>
      </trkpt>
      <trkpt lat="42.85089" lon="2.6073">
        <ele>279.12116356715</ele>
        <time>2017-07-02T12:12:49Z</time>
      </trkpt>
      <trkpt lat="42.85086" lon="2.60734">
        <ele>279.12116356715</ele>
        <time>2017-07-02T12:12:54Z</time>
      </trkpt>
      <trkpt lat="42.85083" lon="2.60737">
        <ele>279.12116356715</ele>
        <time>2017-07-02T12:12:59Z</time>
      </trkpt>
      <trkpt lat="42.85084" lon="2.60741">
        <ele>277.00119571907</ele>
        <time>2017-07-02T12:13:04Z</time>
      </trkpt>
      <trkpt lat="42.85082" lon="2.60746">
        <ele>277.00119571907</ele>
        <time>2017-07-02T12:13:09Z</time>
      </trkpt>
      <trkpt lat="42.85077" lon="2.60752">
        <ele>274.79657252045</ele>
        <time>2017-07-02T12:13:14Z</time>
      </trkpt>
      <trkpt lat="42.85072" lon="2.60757">
        <ele>274.79657252045</ele>
        <time>2017-07-02T12:13:19Z</time>
      </trkpt>
      <trkpt lat="42.85068" lon="2.60763">
        <ele>272.48201999376</ele>
        <time>2017-07-02T12:13:24Z</time>
      </trkpt>
      <trkpt lat="42.85061" lon="2.60768">
        <ele>272.48201999376</ele>
        <time>2017-07-02T12:13:29Z</time>
      </trkpt>
      <trkpt lat="42.85056" lon="2.60774">
        <ele>270.08238158383</ele>
        <time>2017-07-02T12:13:36Z</time>
      </trkpt>
      <trkpt lat="42.85052" lon="2.60789">
        <ele>267.77987329963</ele>
        <time>2017-07-02T12:13:44Z</time>
      </trkpt>
      <trkpt lat="42.85041" lon="2.60808">
        <ele>265.55254074293</ele>
        <time>2017-07-02T12:14:00Z</time>
      </trkpt>
      <trkpt lat="42.85017" lon="2.60831">
        <ele>265.17486896525</ele>
        <time>2017-07-02T12:14:48Z</time>
      </trkpt>
      <trkpt lat="42.85016" lon="2.60832">
        <ele>265.17486896525</ele>
        <time>2017-07-02T12:14:56Z</time>
      </trkpt>
      <trkpt lat="42.85014" lon="2.60835">
        <ele>265.17486896525</ele>
        <time>2017-07-02T12:14:59Z</time>
      </trkpt>
      <trkpt lat="42.85011" lon="2.60842">
        <ele>264.85402690754</ele>
        <time>2017-07-02T12:15:04Z</time>
      </trkpt>
      <trkpt lat="42.85008" lon="2.60845">
        <ele>264.85402690754</ele>
        <time>2017-07-02T12:15:13Z</time>
      </trkpt>
      <trkpt lat="42.85" lon="2.60861">
        <ele>264.63036700493</ele>
        <time>2017-07-02T12:15:19Z</time>
      </trkpt>
      <trkpt lat="42.8497" lon="2.60979">
        <ele>265.16208265574</ele>
        <time>2017-07-02T12:19:00Z</time>
      </trkpt>
      <trkpt lat="42.84979" lon="2.61023">
        <ele>265.55190883546</ele>
        <time>2017-07-02T12:19:04Z</time>
      </trkpt>
      <trkpt lat="42.8498" lon="2.61029">
        <ele>265.55190883546</ele>
        <time>2017-07-02T12:19:09Z</time>
      </trkpt>
      <trkpt lat="42.84985" lon="2.61043">
        <ele>265.87329250938</ele>
        <time>2017-07-02T12:19:36Z</time>
      </trkpt>
      <trkpt lat="42.84982" lon="2.61074">
        <ele>266.14720757421</ele>
        <time>2017-07-02T12:20:16Z</time>
      </trkpt>
      <trkpt lat="42.84994" lon="2.61139">
        <ele>265.80198132364</ele>
        <time>2017-07-02T12:20:36Z</time>
      </trkpt>
      <trkpt lat="42.84991" lon="2.61199">
        <ele>265.469478185</ele>
        <time>2017-07-02T12:21:30Z</time>
      </trkpt>
      <trkpt lat="42.8499" lon="2.61208">
        <ele>265.469478185</ele>
        <time>2017-07-02T12:21:31Z</time>
      </trkpt>
      <trkpt lat="42.8499" lon="2.61245">
        <ele>265.35953264786</ele>
        <time>2017-07-02T12:22:15Z</time>
      </trkpt>
      <trkpt lat="42.85015" lon="2.61303">
        <ele>265.77327655841</ele>
        <time>2017-07-02T12:23:01Z</time>
      </trkpt>
      <trkpt lat="42.85017" lon="2.61308">
        <ele>265.77327655841</ele>
        <time>2017-07-02T12:23:05Z</time>
      </trkpt>
      <trkpt lat="42.8502" lon="2.61312">
        <ele>265.77327655841</ele>
        <time>2017-07-02T12:23:09Z</time>
      </trkpt>
      <trkpt lat="42.85023" lon="2.61317">
        <ele>266.13452524328</ele>
        <time>2017-07-02T12:23:14Z</time>
      </trkpt>
      <trkpt lat="42.85031" lon="2.61335">
        <ele>266.46064606715</ele>
        <time>2017-07-02T12:23:29Z</time>
      </trkpt>
      <trkpt lat="42.85036" lon="2.6137">
        <ele>266.83662537859</ele>
        <time>2017-07-02T12:24:00Z</time>
      </trkpt>
      <trkpt lat="42.85036" lon="2.61371">
        <ele>266.83662537859</ele>
        <time>2017-07-02T12:24:01Z</time>
      </trkpt>
      <trkpt lat="42.85038" lon="2.61372">
        <ele>266.83662537859</ele>
        <time>2017-07-02T12:24:19Z</time>
      </trkpt>
      <trkpt lat="42.85066" lon="2.614">
        <ele>267.34096048897</ele>
        <time>2017-07-02T12:25:20Z</time>
      </trkpt>
      <trkpt lat="42.85066" lon="2.614">
        <ele>267.34096048897</ele>
        <time>2017-07-02T12:26:07Z</time>
      </trkpt>
      <trkpt lat="42.85036" lon="2.61463">
        <ele>268.00516191168</ele>
        <time>2017-07-02T12:26:28Z</time>
      </trkpt>
      <trkpt lat="42.85013" lon="2.61509">
        <ele>269.34726026813</ele>
        <time>2017-07-02T12:27:11Z</time>
      </trkpt>
      <trkpt lat="42.85011" lon="2.61511">
        <ele>269.34726026813</ele>
        <time>2017-07-02T12:27:14Z</time>
      </trkpt>
      <trkpt lat="42.85008" lon="2.61518">
        <ele>269.34726026813</ele>
        <time>2017-07-02T12:27:21Z</time>
      </trkpt>
      <trkpt lat="42.85007" lon="2.61519">
        <ele>270.76159383357</ele>
        <time>2017-07-02T12:27:27Z</time>
      </trkpt>
      <trkpt lat="42.85005" lon="2.61524">
        <ele>270.76159383357</ele>
        <time>2017-07-02T12:27:29Z</time>
      </trkpt>
      <trkpt lat="42.85003" lon="2.61527">
        <ele>270.76159383357</ele>
        <time>2017-07-02T12:27:34Z</time>
      </trkpt>
      <trkpt lat="42.84992" lon="2.61553">
        <ele>272.3810531773</ele>
        <time>2017-07-02T12:28:25Z</time>
      </trkpt>
      <trkpt lat="42.84978" lon="2.61582">
        <ele>274.99722554661</ele>
        <time>2017-07-02T12:28:44Z</time>
      </trkpt>
      <trkpt lat="42.8497" lon="2.6161">
        <ele>278.10291660346</ele>
        <time>2017-07-02T12:29:21Z</time>
      </trkpt>
      <trkpt lat="42.84967" lon="2.61627">
        <ele>281.40123493921</ele>
        <time>2017-07-02T12:29:34Z</time>
      </trkpt>
      <trkpt lat="42.84967" lon="2.61632">
        <ele>281.40123493921</ele>
        <time>2017-07-02T12:29:45Z</time>
      </trkpt>
      <trkpt lat="42.84967" lon="2.61634">
        <ele>281.40123493921</ele>
        <time>2017-07-02T12:29:45Z</time>
      </trkpt>
      <trkpt lat="42.84967" lon="2.61656">
        <ele>285.36124782181</ele>
        <time>2017-07-02T12:30:18Z</time>
      </trkpt>
      <trkpt lat="42.8496" lon="2.61675">
        <ele>289.2451880899</ele>
        <time>2017-07-02T12:30:19Z</time>
      </trkpt>
      <trkpt lat="42.84956" lon="2.61696">
        <ele>293.21808635467</ele>
        <time>2017-07-02T12:30:50Z</time>
      </trkpt>
      <trkpt lat="42.84958" lon="2.617">
        <ele>293.21808635467</ele>
        <time>2017-07-02T12:32:23Z</time>
      </trkpt>
      <trkpt lat="42.84957" lon="2.61703">
        <ele>293.21808635467</ele>
        <time>2017-07-02T12:32:24Z</time>
      </trkpt>
      <trkpt lat="42.84955" lon="2.6175">
        <ele>297.31796141159</ele>
        <time>2017-07-02T12:33:32Z</time>
      </trkpt>
      <trkpt lat="42.84948" lon="2.6176">
        <ele>301.55073012677</ele>
        <time>2017-07-02T12:33:41Z</time>
      </trkpt>
      <trkpt lat="42.84948" lon="2.61765">
        <ele>301.55073012677</ele>
        <time>2017-07-02T12:33:49Z</time>
      </trkpt>
      <trkpt lat="42.84928" lon="2.61789">
        <ele>305.6237650937</ele>
        <time>2017-07-02T12:34:25Z</time>
      </trkpt>
      <trkpt lat="42.84925" lon="2.61795">
        <ele>305.6237650937</ele>
        <time>2017-07-02T12:34:35Z</time>
      </trkpt>
      <trkpt lat="42.84916" lon="2.61805">
        <ele>310.49007474955</ele>
        <time>2017-07-02T12:34:42Z</time>
      </trkpt>
      <trkpt lat="42.84898" lon="2.61832">
        <ele>315.70378721564</ele>
        <time>2017-07-02T12:35:26Z</time>
      </trkpt>
      <trkpt lat="42.84886" lon="2.61811">
        <ele>321.01211437461</ele>
        <time>2017-07-02T12:35:46Z</time>
      </trkpt>
      <trkpt lat="42.84884" lon="2.61809">
        <ele>321.01211437461</ele>
        <time>2017-07-02T12:35:49Z</time>
      </trkpt>
      <trkpt lat="42.84881" lon="2.61805">
        <ele>321.01211437461</ele>
        <time>2017-07-02T12:35:56Z</time>
      </trkpt>
      <trkpt lat="42.84879" lon="2.61803">
        <ele>321.01211437461</ele>
        <time>2017-07-02T12:35:59Z</time>
      </trkpt>
      <trkpt lat="42.84875" lon="2.61799">
        <ele>326.13460174429</ele>
        <time>2017-07-02T12:36:06Z</time>
      </trkpt>
      <trkpt lat="42.84874" lon="2.61796">
        <ele>326.13460174429</ele>
        <time>2017-07-02T12:36:11Z</time>
      </trkpt>
      <trkpt lat="42.84873" lon="2.61792">
        <ele>326.13460174429</ele>
        <time>2017-07-02T12:36:14Z</time>
      </trkpt>
      <trkpt lat="42.84846" lon="2.61796">
        <ele>330.96356662542</ele>
        <time>2017-07-02T12:37:14Z</time>
      </trkpt>
      <trkpt lat="42.84846" lon="2.61797">
        <ele>330.96356662542</ele>
        <time>2017-07-02T12:37:19Z</time>
      </trkpt>
      <trkpt lat="42.84846" lon="2.61808">
        <ele>330.96356662542</ele>
        <time>2017-07-02T12:38:05Z</time>
      </trkpt>
      <trkpt lat="42.84846" lon="2.61813">
        <ele>336.29261479082</ele>
        <time>2017-07-02T12:38:05Z</time>
      </trkpt>
      <trkpt lat="42.8484" lon="2.6184">
        <ele>341.10312711097</ele>
        <time>2017-07-02T12:38:38Z</time>
      </trkpt>
      <trkpt lat="42.84841" lon="2.6186">
        <ele>345.40871786848</ele>
        <time>2017-07-02T12:38:52Z</time>
      </trkpt>
      <trkpt lat="42.84841" lon="2.61861">
        <ele>345.40871786848</ele>
        <time>2017-07-02T12:38:52Z</time>
      </trkpt>
      <trkpt lat="42.84826" lon="2.6189">
        <ele>349.69250304144</ele>
        <time>2017-07-02T12:39:44Z</time>
      </trkpt>
      <trkpt lat="42.84829" lon="2.61897">
        <ele>349.69250304144</ele>
        <time>2017-07-02T12:39:45Z</time>
      </trkpt>
      <trkpt lat="42.84831" lon="2.61897">
        <ele>349.69250304144</ele>
        <time>2017-07-02T12:39:47Z</time>
      </trkpt>
      <trkpt lat="42.8485" lon="2.61908">
        <ele>354.09866906547</ele>
        <time>2017-07-02T12:40:19Z</time>
      </trkpt>
      <trkpt lat="42.84865" lon="2.61938">
        <ele>358.60940860768</ele>
        <time>2017-07-02T12:42:15Z</time>
      </trkpt>
      <trkpt lat="42.84873" lon="2.61957">
        <ele>362.48854001299</ele>
        <time>2017-07-02T12:42:26Z</time>
      </trkpt>
      <trkpt lat="42.84894" lon="2.62009">
        <ele>366.35077263836</ele>
        <time>2017-07-02T12:43:24Z</time>
      </trkpt>
      <trkpt lat="42.84897" lon="2.62011">
        <ele>366.35077263836</ele>
        <time>2017-07-02T12:43:24Z</time>
      </trkpt>
      <trkpt lat="42.84904" lon="2.62021">
        <ele>369.80430319705</ele>
        <time>2017-07-02T12:43:44Z</time>
      </trkpt>
      <trkpt lat="42.8491" lon="2.62036">
        <ele>372.80460550756</ele>
        <time>2017-07-02T12:44:04Z</time>
      </trkpt>
      <trkpt lat="42.84926" lon="2.62061">
        <ele>375.66906695962</ele>
        <time>2017-07-02T12:44:27Z</time>
      </trkpt>
      <trkpt lat="42.84926" lon="2.62063">
        <ele>375.66906695962</ele>
        <time>2017-07-02T12:44:29Z</time>
      </trkpt>
      <trkpt lat="42.84933" lon="2.62072">
        <ele>378.14056248988</ele>
        <time>2017-07-02T12:44:44Z</time>
      </trkpt>
      <trkpt lat="42.84935" lon="2.62074">
        <ele>378.14056248988</ele>
        <time>2017-07-02T12:44:49Z</time>
      </trkpt>
      <trkpt lat="42.84939" lon="2.62084">
        <ele>380.28044636614</ele>
        <time>2017-07-02T12:44:59Z</time>
      </trkpt>
      <trkpt lat="42.84942" lon="2.62088">
        <ele>380.28044636614</ele>
        <time>2017-07-02T12:45:04Z</time>
      </trkpt>
      <trkpt lat="42.84947" lon="2.62096">
        <ele>382.21961686392</ele>
        <time>2017-07-02T12:45:14Z</time>
      </trkpt>
      <trkpt lat="42.84951" lon="2.62097">
        <ele>382.21961686392</ele>
        <time>2017-07-02T12:45:19Z</time>
      </trkpt>
      <trkpt lat="42.84962" lon="2.62104">
        <ele>384.12275089899</ele>
        <time>2017-07-02T12:45:34Z</time>
      </trkpt>
      <trkpt lat="42.84969" lon="2.62115">
        <ele>385.95018528323</ele>
        <time>2017-07-02T12:45:50Z</time>
      </trkpt>
      <trkpt lat="42.84972" lon="2.62118">
        <ele>385.95018528323</ele>
        <time>2017-07-02T12:45:54Z</time>
      </trkpt>
      <trkpt lat="42.84978" lon="2.62129">
        <ele>387.60721715971</ele>
        <time>2017-07-02T12:46:04Z</time>
      </trkpt>
      <trkpt lat="42.84982" lon="2.62132">
        <ele>387.60721715971</ele>
        <time>2017-07-02T12:46:09Z</time>
      </trkpt>
      <trkpt lat="42.85013" lon="2.62179">
        <ele>390.32298913594</ele>
        <time>2017-07-02T12:47:02Z</time>
      </trkpt>
      <trkpt lat="42.85013" lon="2.6218">
        <ele>390.32298913594</ele>
        <time>2017-07-02T12:47:04Z</time>
      </trkpt>
      <trkpt lat="42.85018" lon="2.62211">
        <ele>393.70687556796</ele>
        <time>2017-07-02T12:47:50Z</time>
      </trkpt>
      <trkpt lat="42.85019" lon="2.62234">
        <ele>396.64116881892</ele>
        <time>2017-07-02T12:47:50Z</time>
      </trkpt>
      <trkpt lat="42.85034" lon="2.62307">
        <ele>400.52753541349</ele>
        <time>2017-07-02T12:48:56Z</time>
      </trkpt>
      <trkpt lat="42.85032" lon="2.62312">
        <ele>400.52753541349</ele>
        <time>2017-07-02T12:48:59Z</time>
      </trkpt>
      <trkpt lat="42.85033" lon="2.62364">
        <ele>404.66463052143</ele>
        <time>2017-07-02T12:49:43Z</time>
      </trkpt>
      <trkpt lat="42.85032" lon="2.62368">
        <ele>404.66463052143</ele>
        <time>2017-07-02T12:49:43Z</time>
      </trkpt>
      <trkpt lat="42.85062" lon="2.62445">
        <ele>409.81295290599</ele>
        <time>2017-07-02T12:51:43Z</time>
      </trkpt>
      <trkpt lat="42.85066" lon="2.62449">
        <ele>409.81295290599</ele>
        <time>2017-07-02T12:51:43Z</time>
      </trkpt>
      <trkpt lat="42.85088" lon="2.62458">
        <ele>414.83142196098</ele>
        <time>2017-07-02T12:52:09Z</time>
      </trkpt>
      <trkpt lat="42.85092" lon="2.62461">
        <ele>414.83142196098</ele>
        <time>2017-07-02T12:52:14Z</time>
      </trkpt>
      <trkpt lat="42.85094" lon="2.62461">
        <ele>414.83142196098</ele>
        <time>2017-07-02T12:52:24Z</time>
      </trkpt>
      <trkpt lat="42.85101" lon="2.62463">
        <ele>419.60886705307</ele>
        <time>2017-07-02T12:52:34Z</time>
      </trkpt>
      <trkpt lat="42.85105" lon="2.62465">
        <ele>419.60886705307</ele>
        <time>2017-07-02T12:52:39Z</time>
      </trkpt>
      <trkpt lat="42.8511" lon="2.62469">
        <ele>423.9565436568</ele>
        <time>2017-07-02T12:52:44Z</time>
      </trkpt>
      <trkpt lat="42.85114" lon="2.62472">
        <ele>423.9565436568</ele>
        <time>2017-07-02T12:52:49Z</time>
      </trkpt>
      <trkpt lat="42.85114" lon="2.62476">
        <ele>423.9565436568</ele>
        <time>2017-07-02T12:52:54Z</time>
      </trkpt>
      <trkpt lat="42.85114" lon="2.62481">
        <ele>427.75904155051</ele>
        <time>2017-07-02T12:52:59Z</time>
      </trkpt>
      <trkpt lat="42.85113" lon="2.62485">
        <ele>427.75904155051</ele>
        <time>2017-07-02T12:53:04Z</time>
      </trkpt>
      <trkpt lat="42.85112" lon="2.62491">
        <ele>427.75904155051</ele>
        <time>2017-07-02T12:53:09Z</time>
      </trkpt>
      <trkpt lat="42.85112" lon="2.62496">
        <ele>431.1421797957</ele>
        <time>2017-07-02T12:53:14Z</time>
      </trkpt>
      <trkpt lat="42.85112" lon="2.62501">
        <ele>431.1421797957</ele>
        <time>2017-07-02T12:53:19Z</time>
      </trkpt>
      <trkpt lat="42.85112" lon="2.62505">
        <ele>431.1421797957</ele>
        <time>2017-07-02T12:53:24Z</time>
      </trkpt>
      <trkpt lat="42.85111" lon="2.6251">
        <ele>434.07899279494</ele>
        <time>2017-07-02T12:53:30Z</time>
      </trkpt>
      <trkpt lat="42.85108" lon="2.62539">
        <ele>436.79105736996</ele>
        <time>2017-07-02T12:54:05Z</time>
      </trkpt>
      <trkpt lat="42.85109" lon="2.6256">
        <ele>439.25321486994</ele>
        <time>2017-07-02T12:54:18Z</time>
      </trkpt>
      <trkpt lat="42.85116" lon="2.62588">
        <ele>441.67370291575</ele>
        <time>2017-07-02T12:54:59Z</time>
      </trkpt>
      <trkpt lat="42.85078" lon="2.6268">
        <ele>446.69695776018</ele>
        <time>2017-07-02T12:57:02Z</time>
      </trkpt>
      <trkpt lat="42.85078" lon="2.6268">
        <ele>446.69695776018</ele>
        <time>2017-07-02T12:57:04Z</time>
      </trkpt>
      <trkpt lat="42.85074" lon="2.62685">
        <ele>446.69695776018</ele>
        <time>2017-07-02T12:57:11Z</time>
      </trkpt>
      <trkpt lat="42.85076" lon="2.62688">
        <ele>451.15598872164</ele>
        <time>2017-07-02T12:57:14Z</time>
      </trkpt>
      <trkpt lat="42.85074" lon="2.62692">
        <ele>451.15598872164</ele>
        <time>2017-07-02T12:57:19Z</time>
      </trkpt>
      <trkpt lat="42.85054" lon="2.62723">
        <ele>455.53646047231</ele>
        <time>2017-07-02T12:58:09Z</time>
      </trkpt>
      <trkpt lat="42.85062" lon="2.6273">
        <ele>459.38019425796</ele>
        <time>2017-07-02T12:58:24Z</time>
      </trkpt>
      <trkpt lat="42.8507" lon="2.62727">
        <ele>459.38019425796</ele>
        <time>2017-07-02T12:59:13Z</time>
      </trkpt>
      <trkpt lat="42.85059" lon="2.62726">
        <ele>463.30232196756</ele>
        <time>2017-07-02T12:59:39Z</time>
      </trkpt>
      <trkpt lat="42.8504" lon="2.62749">
        <ele>466.64710085564</ele>
        <time>2017-07-02T13:00:30Z</time>
      </trkpt>
      <trkpt lat="42.85031" lon="2.62772">
        <ele>469.90441627342</ele>
        <time>2017-07-02T13:00:52Z</time>
      </trkpt>
      <trkpt lat="42.85023" lon="2.62785">
        <ele>472.80756272371</ele>
        <time>2017-07-02T13:01:05Z</time>
      </trkpt>
      <trkpt lat="42.85023" lon="2.62786">
        <ele>472.80756272371</ele>
        <time>2017-07-02T13:01:05Z</time>
      </trkpt>
      <trkpt lat="42.85018" lon="2.62803">
        <ele>475.35559556116</ele>
        <time>2017-07-02T13:01:24Z</time>
      </trkpt>
      <trkpt lat="42.8502" lon="2.62784">
        <ele>477.49101180996</ele>
        <time>2017-07-02T13:02:00Z</time>
      </trkpt>
      <trkpt lat="42.85024" lon="2.62769">
        <ele>479.26268772278</ele>
        <time>2017-07-02T13:02:10Z</time>
      </trkpt>
      <trkpt lat="42.85026" lon="2.62693">
        <ele>481.42368398099</ele>
        <time>2017-07-02T13:03:49Z</time>
      </trkpt>
      <trkpt lat="42.84999" lon="2.62647">
        <ele>483.56014833747</ele>
        <time>2017-07-02T13:04:57Z</time>
      </trkpt>
      <trkpt lat="42.84995" lon="2.62643">
        <ele>483.56014833747</ele>
        <time>2017-07-02T13:04:57Z</time>
      </trkpt>
      <trkpt lat="42.84995" lon="2.62641">
        <ele>483.56014833747</ele>
        <time>2017-07-02T13:04:59Z</time>
      </trkpt>
      <trkpt lat="42.8499" lon="2.62632">
        <ele>485.40404689516</ele>
        <time>2017-07-02T13:05:12Z</time>
      </trkpt>
      <trkpt lat="42.84989" lon="2.6263">
        <ele>485.40404689516</ele>
        <time>2017-07-02T13:05:14Z</time>
      </trkpt>
      <trkpt lat="42.84987" lon="2.62621">
        <ele>485.40404689516</ele>
        <time>2017-07-02T13:05:24Z</time>
      </trkpt>
      <trkpt lat="42.84986" lon="2.62619">
        <ele>486.93861809901</ele>
        <time>2017-07-02T13:05:29Z</time>
      </trkpt>
      <trkpt lat="42.84986" lon="2.62618">
        <ele>486.93861809901</ele>
        <time>2017-07-02T13:05:42Z</time>
      </trkpt>
      <trkpt lat="42.84985" lon="2.62614">
        <ele>486.93861809901</ele>
        <time>2017-07-02T13:05:44Z</time>
      </trkpt>
      <trkpt lat="42.84945" lon="2.62601">
        <ele>488.61075620413</ele>
        <time>2017-07-02T13:06:46Z</time>
      </trkpt>
      <trkpt lat="42.8494" lon="2.62599">
        <ele>488.61075620413</ele>
        <time>2017-07-02T13:06:46Z</time>
      </trkpt>
      <trkpt lat="42.84886" lon="2.62549">
        <ele>491.39663428455</ele>
        <time>2017-07-02T13:08:25Z</time>
      </trkpt>
      <trkpt lat="42.84881" lon="2.62545">
        <ele>491.39663428455</ele>
        <time>2017-07-02T13:08:25Z</time>
      </trkpt>
      <trkpt lat="42.84864" lon="2.62519">
        <ele>494.6107661102</ele>
        <time>2017-07-02T13:09:02Z</time>
      </trkpt>
      <trkpt lat="42.84859" lon="2.62471">
        <ele>497.905273102</ele>
        <time>2017-07-02T13:09:44Z</time>
      </trkpt>
      <trkpt lat="42.84859" lon="2.62464">
        <ele>497.905273102</ele>
        <time>2017-07-02T13:09:49Z</time>
      </trkpt>
      <trkpt lat="42.84859" lon="2.62435">
        <ele>501.15951309288</ele>
        <time>2017-07-02T13:10:15Z</time>
      </trkpt>
      <trkpt lat="42.84858" lon="2.6243">
        <ele>501.15951309288</ele>
        <time>2017-07-02T13:10:20Z</time>
      </trkpt>
      <trkpt lat="42.84857" lon="2.62424">
        <ele>501.15951309288</ele>
        <time>2017-07-02T13:10:20Z</time>
      </trkpt>
      <trkpt lat="42.84857" lon="2.62412">
        <ele>504.20408495054</ele>
        <time>2017-07-02T13:10:36Z</time>
      </trkpt>
      <trkpt lat="42.84853" lon="2.62376">
        <ele>507.18547786862</ele>
        <time>2017-07-02T13:11:07Z</time>
      </trkpt>
      <trkpt lat="42.8485" lon="2.62357">
        <ele>509.90780329356</ele>
        <time>2017-07-02T13:11:07Z</time>
      </trkpt>
      <trkpt lat="42.8485" lon="2.62355">
        <ele>509.90780329356</ele>
        <time>2017-07-02T13:11:09Z</time>
      </trkpt>
      <trkpt lat="42.84833" lon="2.62246">
        <ele>513.07000043188</ele>
        <time>2017-07-02T13:12:33Z</time>
      </trkpt>
      <trkpt lat="42.84833" lon="2.62244">
        <ele>513.07000043188</ele>
        <time>2017-07-02T13:12:33Z</time>
      </trkpt>
      <trkpt lat="42.84822" lon="2.62243">
        <ele>515.84728191683</ele>
        <time>2017-07-02T13:14:33Z</time>
      </trkpt>
      <trkpt lat="42.8482" lon="2.62257">
        <ele>518.24092658346</ele>
        <time>2017-07-02T13:14:52Z</time>
      </trkpt>
      <trkpt lat="42.8482" lon="2.62259">
        <ele>518.24092658346</ele>
        <time>2017-07-02T13:15:00Z</time>
      </trkpt>
      <trkpt lat="42.84817" lon="2.62269">
        <ele>520.36849507315</ele>
        <time>2017-07-02T13:15:14Z</time>
      </trkpt>
      <trkpt lat="42.84822" lon="2.62274">
        <ele>520.36849507315</ele>
        <time>2017-07-02T13:15:19Z</time>
      </trkpt>
      <trkpt lat="42.84823" lon="2.62274">
        <ele>520.36849507315</ele>
        <time>2017-07-02T13:15:24Z</time>
      </trkpt>
      <trkpt lat="42.84825" lon="2.62279">
        <ele>522.1377068652</ele>
        <time>2017-07-02T13:15:54Z</time>
      </trkpt>
      <trkpt lat="42.84816" lon="2.62329">
        <ele>523.86772189808</ele>
        <time>2017-07-02T13:16:44Z</time>
      </trkpt>
      <trkpt lat="42.84815" lon="2.62331">
        <ele>523.86772189808</ele>
        <time>2017-07-02T13:16:44Z</time>
      </trkpt>
      <trkpt lat="42.84819" lon="2.62336">
        <ele>523.86772189808</ele>
        <time>2017-07-02T13:16:59Z</time>
      </trkpt>
      <trkpt lat="42.84825" lon="2.62336">
        <ele>525.7100479671</ele>
        <time>2017-07-02T13:17:04Z</time>
      </trkpt>
      <trkpt lat="42.84828" lon="2.62334">
        <ele>525.7100479671</ele>
        <time>2017-07-02T13:17:14Z</time>
      </trkpt>
      <trkpt lat="42.8483" lon="2.62336">
        <ele>525.7100479671</ele>
        <time>2017-07-02T13:17:19Z</time>
      </trkpt>
      <trkpt lat="42.84822" lon="2.62346">
        <ele>527.30005282468</ele>
        <time>2017-07-02T13:17:34Z</time>
      </trkpt>
      <trkpt lat="42.84818" lon="2.62354">
        <ele>527.30005282468</ele>
        <time>2017-07-02T13:17:39Z</time>
      </trkpt>
      <trkpt lat="42.8482" lon="2.6236">
        <ele>528.54564857063</ele>
        <time>2017-07-02T13:17:44Z</time>
      </trkpt>
      <trkpt lat="42.8482" lon="2.62367">
        <ele>528.54564857063</ele>
        <time>2017-07-02T13:17:49Z</time>
      </trkpt>
      <trkpt lat="42.84804" lon="2.62399">
        <ele>530.06874712951</ele>
        <time>2017-07-02T13:18:21Z</time>
      </trkpt>
      <trkpt lat="42.84803" lon="2.62405">
        <ele>530.06874712951</ele>
        <time>2017-07-02T13:18:21Z</time>
      </trkpt>
      <trkpt lat="42.84772" lon="2.62487">
        <ele>532.31485778357</ele>
        <time>2017-07-02T13:20:01Z</time>
      </trkpt>
      <trkpt lat="42.84769" lon="2.62492">
        <ele>532.31485778357</ele>
        <time>2017-07-02T13:20:01Z</time>
      </trkpt>
      <trkpt lat="42.84791" lon="2.62602">
        <ele>535.9684409927</ele>
        <time>2017-07-02T13:21:45Z</time>
      </trkpt>
      <trkpt lat="42.84792" lon="2.62606">
        <ele>535.9684409927</ele>
        <time>2017-07-02T13:21:49Z</time>
      </trkpt>
      <trkpt lat="42.84793" lon="2.6261">
        <ele>535.9684409927</ele>
        <time>2017-07-02T13:21:54Z</time>
      </trkpt>
      <trkpt lat="42.84797" lon="2.62623">
        <ele>539.09389795989</ele>
        <time>2017-07-02T13:22:11Z</time>
      </trkpt>
      <trkpt lat="42.84801" lon="2.62634">
        <ele>541.80200721977</ele>
        <time>2017-07-02T13:22:12Z</time>
      </trkpt>
      <trkpt lat="42.84799" lon="2.62693">
        <ele>544.94594155674</ele>
        <time>2017-07-02T13:23:17Z</time>
      </trkpt>
      <trkpt lat="42.84801" lon="2.62704">
        <ele>544.94594155674</ele>
        <time>2017-07-02T13:23:42Z</time>
      </trkpt>
      <trkpt lat="42.848" lon="2.6271">
        <ele>548.14739043715</ele>
        <time>2017-07-02T13:23:42Z</time>
      </trkpt>
      <trkpt lat="42.84796" lon="2.62725">
        <ele>551.24299024209</ele>
        <time>2017-07-02T13:24:16Z</time>
      </trkpt>
      <trkpt lat="42.84798" lon="2.62737">
        <ele>554.16808712652</ele>
        <time>2017-07-02T13:24:33Z</time>
      </trkpt>
      <trkpt lat="42.84801" lon="2.62747">
        <ele>554.16808712652</ele>
        <time>2017-07-02T13:24:33Z</time>
      </trkpt>
      <trkpt lat="42.84795" lon="2.62774">
        <ele>556.87760339881</ele>
        <time>2017-07-02T13:25:07Z</time>
      </trkpt>
      <trkpt lat="42.84798" lon="2.62845">
        <ele>560.48325257825</ele>
        <time>2017-07-02T13:25:54Z</time>
      </trkpt>
      <trkpt lat="42.84795" lon="2.62851">
        <ele>560.48325257825</ele>
        <time>2017-07-02T13:25:59Z</time>
      </trkpt>
      <trkpt lat="42.84791" lon="2.62855">
        <ele>563.90838952741</ele>
        <time>2017-07-02T13:26:25Z</time>
      </trkpt>
      <trkpt lat="42.84787" lon="2.62857">
        <ele>563.90838952741</ele>
        <time>2017-07-02T13:26:25Z</time>
      </trkpt>
      <trkpt lat="42.84786" lon="2.62865">
        <ele>567.13593381069</ele>
        <time>2017-07-02T13:26:57Z</time>
      </trkpt>
      <trkpt lat="42.84785" lon="2.62863">
        <ele>567.13593381069</ele>
        <time>2017-07-02T13:27:16Z</time>
      </trkpt>
      <trkpt lat="42.84783" lon="2.62861">
        <ele>567.13593381069</ele>
        <time>2017-07-02T13:27:16Z</time>
      </trkpt>
      <trkpt lat="42.8473" lon="2.6287">
        <ele>570.30909774164</ele>
        <time>2017-07-02T13:28:45Z</time>
      </trkpt>
      <trkpt lat="42.84702" lon="2.6289">
        <ele>573.47422154248</ele>
        <time>2017-07-02T13:29:28Z</time>
      </trkpt>
      <trkpt lat="42.84672" lon="2.62909">
        <ele>576.78952619195</ele>
        <time>2017-07-02T13:29:59Z</time>
      </trkpt>
      <trkpt lat="42.84655" lon="2.62922">
        <ele>579.9544168429</ele>
        <time>2017-07-02T13:30:28Z</time>
      </trkpt>
      <trkpt lat="42.84648" lon="2.62929">
        <ele>579.9544168429</ele>
        <time>2017-07-02T13:30:28Z</time>
      </trkpt>
      <trkpt lat="42.84636" lon="2.62945">
        <ele>583.12312354016</ele>
        <time>2017-07-02T13:31:00Z</time>
      </trkpt>
      <trkpt lat="42.8461" lon="2.62978">
        <ele>586.23676516717</ele>
        <time>2017-07-02T13:31:46Z</time>
      </trkpt>
      <trkpt lat="42.84609" lon="2.62968">
        <ele>586.23676516717</ele>
        <time>2017-07-02T13:31:46Z</time>
      </trkpt>
      <trkpt lat="42.84611" lon="2.62959">
        <ele>588.83741483341</ele>
        <time>2017-07-02T13:31:54Z</time>
      </trkpt>
      <trkpt lat="42.84609" lon="2.62935">
        <ele>591.04984250294</ele>
        <time>2017-07-02T13:32:23Z</time>
      </trkpt>
      <trkpt lat="42.84596" lon="2.62903">
        <ele>593.01955490877</ele>
        <time>2017-07-02T13:32:54Z</time>
      </trkpt>
      <trkpt lat="42.84587" lon="2.62865">
        <ele>594.60822257029</ele>
        <time>2017-07-02T13:33:44Z</time>
      </trkpt>
      <trkpt lat="42.84581" lon="2.62845">
        <ele>595.77519419942</ele>
        <time>2017-07-02T13:33:58Z</time>
      </trkpt>
      <trkpt lat="42.8458" lon="2.62844">
        <ele>595.77519419942</ele>
        <time>2017-07-02T13:33:59Z</time>
      </trkpt>
      <trkpt lat="42.84578" lon="2.62838">
        <ele>595.77519419942</ele>
        <time>2017-07-02T13:34:06Z</time>
      </trkpt>
      <trkpt lat="42.84594" lon="2.62724">
        <ele>596.42631279044</ele>
        <time>2017-07-02T13:35:23Z</time>
      </trkpt>
      <trkpt lat="42.84601" lon="2.62672">
        <ele>596.7783838775</ele>
        <time>2017-07-02T13:36:06Z</time>
      </trkpt>
      <trkpt lat="42.846" lon="2.62659">
        <ele>596.93219153549</ele>
        <time>2017-07-02T13:36:06Z</time>
      </trkpt>
      <trkpt lat="42.84615" lon="2.62549">
        <ele>596.07367919106</ele>
        <time>2017-07-02T13:37:19Z</time>
      </trkpt>
      <trkpt lat="42.84613" lon="2.6252">
        <ele>594.86366249589</ele>
        <time>2017-07-02T13:37:44Z</time>
      </trkpt>
      <trkpt lat="42.84612" lon="2.62514">
        <ele>594.86366249589</ele>
        <time>2017-07-02T13:37:44Z</time>
      </trkpt>
      <trkpt lat="42.84605" lon="2.62478">
        <ele>593.45412181593</ele>
        <time>2017-07-02T13:38:06Z</time>
      </trkpt>
      <trkpt lat="42.84604" lon="2.62473">
        <ele>593.45412181593</ele>
        <time>2017-07-02T13:38:09Z</time>
      </trkpt>
      <trkpt lat="42.8455" lon="2.62383">
        <ele>591.85659469986</ele>
        <time>2017-07-02T13:40:46Z</time>
      </trkpt>
      <trkpt lat="42.84532" lon="2.6235">
        <ele>590.26948955828</ele>
        <time>2017-07-02T13:41:15Z</time>
      </trkpt>
      <trkpt lat="42.84515" lon="2.6232">
        <ele>588.51614217756</ele>
        <time>2017-07-02T13:41:44Z</time>
      </trkpt>
      <trkpt lat="42.84507" lon="2.62303">
        <ele>586.62047963644</ele>
        <time>2017-07-02T13:42:02Z</time>
      </trkpt>
      <trkpt lat="42.84506" lon="2.62298">
        <ele>586.62047963644</ele>
        <time>2017-07-02T13:42:04Z</time>
      </trkpt>
      <trkpt lat="42.84495" lon="2.6228">
        <ele>584.43191016054</ele>
        <time>2017-07-02T13:42:26Z</time>
      </trkpt>
      <trkpt lat="42.84484" lon="2.62263">
        <ele>582.08530210089</ele>
        <time>2017-07-02T13:42:43Z</time>
      </trkpt>
      <trkpt lat="42.84478" lon="2.62254">
        <ele>579.74903267707</ele>
        <time>2017-07-02T13:42:43Z</time>
      </trkpt>
      <trkpt lat="42.8448" lon="2.6225">
        <ele>579.74903267707</ele>
        <time>2017-07-02T13:43:00Z</time>
      </trkpt>
      <trkpt lat="42.84439" lon="2.62191">
        <ele>577.46351071429</ele>
        <time>2017-07-02T13:43:55Z</time>
      </trkpt>
      <trkpt lat="42.8437" lon="2.62106">
        <ele>575.7989628865</ele>
        <time>2017-07-02T13:46:02Z</time>
      </trkpt>
      <trkpt lat="42.84369" lon="2.62104">
        <ele>575.7989628865</ele>
        <time>2017-07-02T13:46:04Z</time>
      </trkpt>
      <trkpt lat="42.84359" lon="2.62092">
        <ele>574.2728804328</ele>
        <time>2017-07-02T13:46:18Z</time>
      </trkpt>
      <trkpt lat="42.84311" lon="2.62055">
        <ele>573.20130379733</ele>
        <time>2017-07-02T13:47:08Z</time>
      </trkpt>
      <trkpt lat="42.84306" lon="2.62057">
        <ele>573.20130379733</ele>
        <time>2017-07-02T13:47:13Z</time>
      </trkpt>
      <trkpt lat="42.84279" lon="2.62056">
        <ele>572.29901100189</ele>
        <time>2017-07-02T13:47:36Z</time>
      </trkpt>
      <trkpt lat="42.84184" lon="2.62068">
        <ele>572.61237576081</ele>
        <time>2017-07-02T13:49:33Z</time>
      </trkpt>
      <trkpt lat="42.84163" lon="2.62075">
        <ele>573.13283406711</ele>
        <time>2017-07-02T13:50:03Z</time>
      </trkpt>
      <trkpt lat="42.84163" lon="2.62076">
        <ele>573.13283406711</ele>
        <time>2017-07-02T13:50:04Z</time>
      </trkpt>
      <trkpt lat="42.84126" lon="2.62062">
        <ele>573.80412702717</ele>
        <time>2017-07-02T13:50:43Z</time>
      </trkpt>
      <trkpt lat="42.84122" lon="2.62058">
        <ele>573.80412702717</ele>
        <time>2017-07-02T13:50:43Z</time>
      </trkpt>
      <trkpt lat="42.84041" lon="2.62083">
        <ele>574.63106870472</ele>
        <time>2017-07-02T13:52:30Z</time>
      </trkpt>
      <trkpt lat="42.84034" lon="2.62085">
        <ele>574.63106870472</ele>
        <time>2017-07-02T13:52:30Z</time>
      </trkpt>
      <trkpt lat="42.84018" lon="2.62097">
        <ele>575.48771641882</ele>
        <time>2017-07-02T13:53:29Z</time>
      </trkpt>
      <trkpt lat="42.83991" lon="2.62109">
        <ele>576.50203953566</ele>
        <time>2017-07-02T13:53:29Z</time>
      </trkpt>
      <trkpt lat="42.83974" lon="2.62112">
        <ele>577.66223325989</ele>
        <time>2017-07-02T13:53:46Z</time>
      </trkpt>
      <trkpt lat="42.83965" lon="2.62115">
        <ele>578.87027198972</ele>
        <time>2017-07-02T13:53:54Z</time>
      </trkpt>
      <trkpt lat="42.83955" lon="2.62113">
        <ele>580.06382598367</ele>
        <time>2017-07-02T13:54:04Z</time>
      </trkpt>
      <trkpt lat="42.83952" lon="2.62113">
        <ele>580.06382598367</ele>
        <time>2017-07-02T13:54:11Z</time>
      </trkpt>
      <trkpt lat="42.83947" lon="2.62111">
        <ele>580.06382598367</ele>
        <time>2017-07-02T13:54:19Z</time>
      </trkpt>
      <trkpt lat="42.83902" lon="2.62138">
        <ele>582.36672750661</ele>
        <time>2017-07-02T13:57:19Z</time>
      </trkpt>
      <trkpt lat="42.83903" lon="2.62138">
        <ele>582.36672750661</ele>
        <time>2017-07-02T13:57:20Z</time>
      </trkpt>
      <trkpt lat="42.83907" lon="2.62139">
        <ele>582.36672750661</ele>
        <time>2017-07-02T13:57:26Z</time>
      </trkpt>
      <trkpt lat="42.83906" lon="2.62155">
        <ele>584.55443165622</ele>
        <time>2017-07-02T14:01:41Z</time>
      </trkpt>
      <trkpt lat="42.83914" lon="2.62161">
        <ele>584.55443165622</ele>
        <time>2017-07-02T14:06:43Z</time>
      </trkpt>
      <trkpt lat="42.83911" lon="2.62136">
        <ele>586.42926690968</ele>
        <time>2017-07-02T14:09:00Z</time>
      </trkpt>
      <trkpt lat="42.83911" lon="2.62135">
        <ele>586.42926690968</ele>
        <time>2017-07-02T14:09:00Z</time>
      </trkpt>
      <trkpt lat="42.83912" lon="2.62129">
        <ele>586.42926690968</ele>
        <time>2017-07-02T14:09:16Z</time>
      </trkpt>
      <trkpt lat="42.83917" lon="2.62128">
        <ele>588.11148313694</ele>
        <time>2017-07-02T14:09:16Z</time>
      </trkpt>
      <trkpt lat="42.83917" lon="2.62128">
        <ele>588.11148313694</ele>
        <time>2017-07-02T14:09:29Z</time>
      </trkpt>
      <trkpt lat="42.83929" lon="2.62093">
        <ele>589.71294510327</ele>
        <time>2017-07-02T14:10:06Z</time>
      </trkpt>
      <trkpt lat="42.83932" lon="2.62088">
        <ele>589.71294510327</ele>
        <time>2017-07-02T14:10:08Z</time>
      </trkpt>
      <trkpt lat="42.83933" lon="2.62086">
        <ele>589.71294510327</ele>
        <time>2017-07-02T14:10:24Z</time>
      </trkpt>
      <trkpt lat="42.83943" lon="2.62078">
        <ele>591.59685302607</ele>
        <time>2017-07-02T14:10:39Z</time>
      </trkpt>
      <trkpt lat="42.83943" lon="2.6207">
        <ele>591.59685302607</ele>
        <time>2017-07-02T14:10:46Z</time>
      </trkpt>
      <trkpt lat="42.83944" lon="2.62062">
        <ele>593.33508604006</ele>
        <time>2017-07-02T14:10:59Z</time>
      </trkpt>
      <trkpt lat="42.83947" lon="2.62059">
        <ele>593.33508604006</ele>
        <time>2017-07-02T14:11:05Z</time>
      </trkpt>
      <trkpt lat="42.83966" lon="2.62025">
        <ele>595.25189550245</ele>
        <time>2017-07-02T14:11:39Z</time>
      </trkpt>
      <trkpt lat="42.84021" lon="2.61914">
        <ele>598.29568653243</ele>
        <time>2017-07-02T14:13:44Z</time>
      </trkpt>
      <trkpt lat="42.84041" lon="2.61895">
        <ele>601.09388833711</ele>
        <time>2017-07-02T14:14:15Z</time>
      </trkpt>
      <trkpt lat="42.84048" lon="2.61889">
        <ele>601.09388833711</ele>
        <time>2017-07-02T14:14:15Z</time>
      </trkpt>
      <trkpt lat="42.84056" lon="2.61881">
        <ele>603.64363447019</ele>
        <time>2017-07-02T14:14:24Z</time>
      </trkpt>
      <trkpt lat="42.84067" lon="2.6187">
        <ele>605.98622436728</ele>
        <time>2017-07-02T14:14:49Z</time>
      </trkpt>
      <trkpt lat="42.84076" lon="2.6186">
        <ele>608.27583470274</ele>
        <time>2017-07-02T14:14:59Z</time>
      </trkpt>
      <trkpt lat="42.84079" lon="2.61854">
        <ele>608.27583470274</ele>
        <time>2017-07-02T14:15:06Z</time>
      </trkpt>
      <trkpt lat="42.84085" lon="2.61847">
        <ele>610.41053005211</ele>
        <time>2017-07-02T14:15:20Z</time>
      </trkpt>
      <trkpt lat="42.84085" lon="2.61846">
        <ele>610.41053005211</ele>
        <time>2017-07-02T14:15:20Z</time>
      </trkpt>
      <trkpt lat="42.84095" lon="2.61845">
        <ele>612.44047362627</ele>
        <time>2017-07-02T14:15:42Z</time>
      </trkpt>
      <trkpt lat="42.84097" lon="2.61846">
        <ele>612.44047362627</ele>
        <time>2017-07-02T14:15:44Z</time>
      </trkpt>
      <trkpt lat="42.84117" lon="2.61849">
        <ele>614.32604409311</ele>
        <time>2017-07-02T14:15:59Z</time>
      </trkpt>
      <trkpt lat="42.84124" lon="2.61856">
        <ele>616.00219325035</ele>
        <time>2017-07-02T14:16:09Z</time>
      </trkpt>
      <trkpt lat="42.84126" lon="2.61855">
        <ele>616.00219325035</ele>
        <time>2017-07-02T14:16:14Z</time>
      </trkpt>
      <trkpt lat="42.84133" lon="2.61861">
        <ele>617.61107897112</ele>
        <time>2017-07-02T14:16:29Z</time>
      </trkpt>
      <trkpt lat="42.84141" lon="2.61869">
        <ele>619.15499237335</ele>
        <time>2017-07-02T14:17:05Z</time>
      </trkpt>
      <trkpt lat="42.84161" lon="2.61902">
        <ele>620.26163769685</ele>
        <time>2017-07-02T14:17:29Z</time>
      </trkpt>
      <trkpt lat="42.84174" lon="2.61917">
        <ele>620.83237041799</ele>
        <time>2017-07-02T14:18:57Z</time>
      </trkpt>
      <trkpt lat="42.84174" lon="2.6192">
        <ele>620.83237041799</ele>
        <time>2017-07-02T14:18:59Z</time>
      </trkpt>
      <trkpt lat="42.84174" lon="2.61926">
        <ele>620.83237041799</ele>
        <time>2017-07-02T14:19:04Z</time>
      </trkpt>
      <trkpt lat="42.84203" lon="2.61955">
        <ele>620.95031186208</ele>
        <time>2017-07-02T14:20:02Z</time>
      </trkpt>
      <trkpt lat="42.84207" lon="2.61953">
        <ele>620.95031186208</ele>
        <time>2017-07-02T14:20:03Z</time>
      </trkpt>
      <trkpt lat="42.84208" lon="2.61953">
        <ele>620.95031186208</ele>
        <time>2017-07-02T14:20:03Z</time>
      </trkpt>
      <trkpt lat="42.84226" lon="2.61959">
        <ele>620.70823375562</ele>
        <time>2017-07-02T14:20:28Z</time>
      </trkpt>
      <trkpt lat="42.84248" lon="2.6196">
        <ele>620.09228916809</ele>
        <time>2017-07-02T14:20:55Z</time>
      </trkpt>
      <trkpt lat="42.84253" lon="2.61962">
        <ele>620.09228916809</ele>
        <time>2017-07-02T14:20:55Z</time>
      </trkpt>
      <trkpt lat="42.8426" lon="2.61964">
        <ele>619.32132600076</ele>
        <time>2017-07-02T14:21:12Z</time>
      </trkpt>
      <trkpt lat="42.84267" lon="2.6196">
        <ele>619.32132600076</ele>
        <time>2017-07-02T14:21:12Z</time>
      </trkpt>
      <trkpt lat="42.84309" lon="2.61974">
        <ele>618.07978520946</ele>
        <time>2017-07-02T14:22:02Z</time>
      </trkpt>
      <trkpt lat="42.84312" lon="2.61974">
        <ele>618.07978520946</ele>
        <time>2017-07-02T14:22:06Z</time>
      </trkpt>
      <trkpt lat="42.84349" lon="2.61947">
        <ele>616.36484876739</ele>
        <time>2017-07-02T14:23:04Z</time>
      </trkpt>
      <trkpt lat="42.84351" lon="2.61942">
        <ele>616.36484876739</ele>
        <time>2017-07-02T14:23:09Z</time>
      </trkpt>
      <trkpt lat="42.84348" lon="2.61938">
        <ele>616.36484876739</ele>
        <time>2017-07-02T14:23:21Z</time>
      </trkpt>
      <trkpt lat="42.84349" lon="2.61896">
        <ele>613.12321768558</ele>
        <time>2017-07-02T14:24:55Z</time>
      </trkpt>
      <trkpt lat="42.84343" lon="2.61842">
        <ele>608.65139992969</ele>
        <time>2017-07-02T14:25:55Z</time>
      </trkpt>
      <trkpt lat="42.84341" lon="2.61831">
        <ele>608.65139992969</ele>
        <time>2017-07-02T14:25:55Z</time>
      </trkpt>
      <trkpt lat="42.84352" lon="2.6178">
        <ele>602.98252185103</ele>
        <time>2017-07-02T14:27:17Z</time>
      </trkpt>
      <trkpt lat="42.84353" lon="2.61777">
        <ele>602.98252185103</ele>
        <time>2017-07-02T14:27:17Z</time>
      </trkpt>
      <trkpt lat="42.84365" lon="2.61726">
        <ele>596.26582187973</ele>
        <time>2017-07-02T14:28:47Z</time>
      </trkpt>
      <trkpt lat="42.84363" lon="2.61707">
        <ele>589.26204672692</ele>
        <time>2017-07-02T14:29:43Z</time>
      </trkpt>
      <trkpt lat="42.84363" lon="2.61702">
        <ele>589.26204672692</ele>
        <time>2017-07-02T14:29:44Z</time>
      </trkpt>
      <trkpt lat="42.84363" lon="2.61699">
        <ele>589.26204672692</ele>
        <time>2017-07-02T14:30:04Z</time>
      </trkpt>
      <trkpt lat="42.84359" lon="2.61683">
        <ele>582.38844776109</ele>
        <time>2017-07-02T14:30:05Z</time>
      </trkpt>
      <trkpt lat="42.84356" lon="2.6166">
        <ele>575.22399511486</ele>
        <time>2017-07-02T14:30:50Z</time>
      </trkpt>
      <trkpt lat="42.84357" lon="2.61655">
        <ele>575.22399511486</ele>
        <time>2017-07-02T14:30:58Z</time>
      </trkpt>
      <trkpt lat="42.84351" lon="2.61651">
        <ele>568.22937251907</ele>
        <time>2017-07-02T14:31:34Z</time>
      </trkpt>
      <trkpt lat="42.84352" lon="2.6164">
        <ele>568.22937251907</ele>
        <time>2017-07-02T14:31:39Z</time>
      </trkpt>
      <trkpt lat="42.84345" lon="2.61613">
        <ele>561.19652731802</ele>
        <time>2017-07-02T14:32:11Z</time>
      </trkpt>
      <trkpt lat="42.84346" lon="2.6161">
        <ele>561.19652731802</ele>
        <time>2017-07-02T14:32:17Z</time>
      </trkpt>
      <trkpt lat="42.84347" lon="2.61628">
        <ele>554.04771990219</ele>
        <time>2017-07-02T14:33:01Z</time>
      </trkpt>
      <trkpt lat="42.84349" lon="2.61583">
        <ele>546.88377948375</ele>
        <time>2017-07-02T14:33:44Z</time>
      </trkpt>
      <trkpt lat="42.84353" lon="2.61588">
        <ele>546.88377948375</ele>
        <time>2017-07-02T14:33:44Z</time>
      </trkpt>
      <trkpt lat="42.84358" lon="2.61561">
        <ele>539.82656226464</ele>
        <time>2017-07-02T14:34:10Z</time>
      </trkpt>
      <trkpt lat="42.84362" lon="2.61557">
        <ele>539.82656226464</ele>
        <time>2017-07-02T14:34:24Z</time>
      </trkpt>
      <trkpt lat="42.84356" lon="2.61486">
        <ele>531.08594504683</ele>
        <time>2017-07-02T14:35:44Z</time>
      </trkpt>
      <trkpt lat="42.84353" lon="2.61467">
        <ele>522.59590952193</ele>
        <time>2017-07-02T14:36:05Z</time>
      </trkpt>
      <trkpt lat="42.84352" lon="2.61467">
        <ele>522.59590952193</ele>
        <time>2017-07-02T14:36:05Z</time>
      </trkpt>
      <trkpt lat="42.8435" lon="2.61409">
        <ele>513.14963488607</ele>
        <time>2017-07-02T14:37:35Z</time>
      </trkpt>
      <trkpt lat="42.84351" lon="2.61394">
        <ele>504.15303604065</ele>
        <time>2017-07-02T14:37:59Z</time>
      </trkpt>
      <trkpt lat="42.84383" lon="2.61419">
        <ele>494.12556783064</ele>
        <time>2017-07-02T14:39:34Z</time>
      </trkpt>
      <trkpt lat="42.84384" lon="2.61422">
        <ele>494.12556783064</ele>
        <time>2017-07-02T14:39:34Z</time>
      </trkpt>
      <trkpt lat="42.84384" lon="2.6142">
        <ele>494.12556783064</ele>
        <time>2017-07-02T14:39:46Z</time>
      </trkpt>
      <trkpt lat="42.84386" lon="2.6138">
        <ele>483.45589044978</ele>
        <time>2017-07-02T14:40:52Z</time>
      </trkpt>
      <trkpt lat="42.84385" lon="2.61373">
        <ele>483.45589044978</ele>
        <time>2017-07-02T14:41:15Z</time>
      </trkpt>
      <trkpt lat="42.84382" lon="2.61364">
        <ele>473.13937359207</ele>
        <time>2017-07-02T14:41:15Z</time>
      </trkpt>
      <trkpt lat="42.84383" lon="2.61356">
        <ele>473.13937359207</ele>
        <time>2017-07-02T14:41:32Z</time>
      </trkpt>
      <trkpt lat="42.84384" lon="2.6135">
        <ele>463.44812151568</ele>
        <time>2017-07-02T14:41:32Z</time>
      </trkpt>
      <trkpt lat="42.84385" lon="2.61348">
        <ele>463.44812151568</ele>
        <time>2017-07-02T14:41:33Z</time>
      </trkpt>
      <trkpt lat="42.84385" lon="2.61333">
        <ele>454.37241993257</ele>
        <time>2017-07-02T14:41:58Z</time>
      </trkpt>
      <trkpt lat="42.84389" lon="2.61302">
        <ele>445.00736068594</ele>
        <time>2017-07-02T14:43:46Z</time>
      </trkpt>
      <trkpt lat="42.84392" lon="2.61293">
        <ele>445.00736068594</ele>
        <time>2017-07-02T14:44:04Z</time>
      </trkpt>
      <trkpt lat="42.84402" lon="2.61231">
        <ele>434.80284119104</ele>
        <time>2017-07-02T14:45:21Z</time>
      </trkpt>
      <trkpt lat="42.84393" lon="2.61216">
        <ele>425.36924915696</ele>
        <time>2017-07-02T14:45:54Z</time>
      </trkpt>
      <trkpt lat="42.84396" lon="2.61191">
        <ele>416.78350993206</ele>
        <time>2017-07-02T14:46:02Z</time>
      </trkpt>
      <trkpt lat="42.84395" lon="2.6119">
        <ele>416.78350993206</ele>
        <time>2017-07-02T14:46:04Z</time>
      </trkpt>
      <trkpt lat="42.84413" lon="2.61169">
        <ele>407.5429947901</ele>
        <time>2017-07-02T14:47:27Z</time>
      </trkpt>
      <trkpt lat="42.84414" lon="2.61168">
        <ele>407.5429947901</ele>
        <time>2017-07-02T14:47:29Z</time>
      </trkpt>
      <trkpt lat="42.84426" lon="2.61149">
        <ele>398.76411885657</ele>
        <time>2017-07-02T14:48:00Z</time>
      </trkpt>
      <trkpt lat="42.84427" lon="2.61148">
        <ele>398.76411885657</ele>
        <time>2017-07-02T14:48:04Z</time>
      </trkpt>
      <trkpt lat="42.84429" lon="2.6115">
        <ele>398.76411885657</ele>
        <time>2017-07-02T14:48:14Z</time>
      </trkpt>
      <trkpt lat="42.84432" lon="2.61146">
        <ele>398.76411885657</ele>
        <time>2017-07-02T14:48:19Z</time>
      </trkpt>
      <trkpt lat="42.84435" lon="2.61112">
        <ele>389.98053245072</ele>
        <time>2017-07-02T14:49:17Z</time>
      </trkpt>
      <trkpt lat="42.84435" lon="2.61106">
        <ele>389.98053245072</ele>
        <time>2017-07-02T14:49:17Z</time>
      </trkpt>
      <trkpt lat="42.84446" lon="2.61079">
        <ele>381.53766499764</ele>
        <time>2017-07-02T14:49:51Z</time>
      </trkpt>
      <trkpt lat="42.84458" lon="2.61047">
        <ele>373.03337889092</ele>
        <time>2017-07-02T14:50:24Z</time>
      </trkpt>
      <trkpt lat="42.84461" lon="2.61014">
        <ele>364.23869421716</ele>
        <time>2017-07-02T14:51:11Z</time>
      </trkpt>
      <trkpt lat="42.84483" lon="2.60975">
        <ele>355.47482613561</ele>
        <time>2017-07-02T14:52:06Z</time>
      </trkpt>
      <trkpt lat="42.8448" lon="2.60971">
        <ele>355.47482613561</ele>
        <time>2017-07-02T14:52:14Z</time>
      </trkpt>
      <trkpt lat="42.84477" lon="2.60969">
        <ele>355.47482613561</ele>
        <time>2017-07-02T14:52:19Z</time>
      </trkpt>
      <trkpt lat="42.84491" lon="2.6091">
        <ele>346.40458133089</ele>
        <time>2017-07-02T14:54:08Z</time>
      </trkpt>
      <trkpt lat="42.84497" lon="2.60905">
        <ele>346.40458133089</ele>
        <time>2017-07-02T14:54:08Z</time>
      </trkpt>
      <trkpt lat="42.84501" lon="2.60901">
        <ele>338.24335412728</ele>
        <time>2017-07-02T14:54:16Z</time>
      </trkpt>
      <trkpt lat="42.84498" lon="2.60895">
        <ele>338.24335412728</ele>
        <time>2017-07-02T14:54:33Z</time>
      </trkpt>
      <trkpt lat="42.84489" lon="2.60831">
        <ele>327.90605377902</ele>
        <time>2017-07-02T14:56:14Z</time>
      </trkpt>
      <trkpt lat="42.84483" lon="2.6083">
        <ele>327.90605377902</ele>
        <time>2017-07-02T14:56:22Z</time>
      </trkpt>
      <trkpt lat="42.84471" lon="2.60804">
        <ele>317.36745268726</ele>
        <time>2017-07-02T14:57:05Z</time>
      </trkpt>
      <trkpt lat="42.84469" lon="2.60806">
        <ele>317.36745268726</ele>
        <time>2017-07-02T14:57:06Z</time>
      </trkpt>
      <trkpt lat="42.84465" lon="2.60804">
        <ele>317.36745268726</ele>
        <time>2017-07-02T14:57:24Z</time>
      </trkpt>
      <trkpt lat="42.8447" lon="2.608">
        <ele>306.74231467478</ele>
        <time>2017-07-02T14:59:14Z</time>
      </trkpt>
      <trkpt lat="42.84475" lon="2.60799">
        <ele>306.74231467478</ele>
        <time>2017-07-02T14:59:19Z</time>
      </trkpt>
      <trkpt lat="42.84491" lon="2.60787">
        <ele>297.10218468205</ele>
        <time>2017-07-02T14:59:34Z</time>
      </trkpt>
      <trkpt lat="42.84532" lon="2.60778">
        <ele>288.34131766019</ele>
        <time>2017-07-02T15:00:14Z</time>
      </trkpt>
      <trkpt lat="42.84537" lon="2.60781">
        <ele>288.34131766019</ele>
        <time>2017-07-02T15:00:20Z</time>
      </trkpt>
      <trkpt lat="42.84548" lon="2.60782">
        <ele>280.69017368819</ele>
        <time>2017-07-02T15:00:29Z</time>
      </trkpt>
      <trkpt lat="42.84571" lon="2.60785">
        <ele>273.96954036702</ele>
        <time>2017-07-02T15:00:52Z</time>
      </trkpt>
      <trkpt lat="42.84572" lon="2.60785">
        <ele>273.96954036702</ele>
        <time>2017-07-02T15:00:56Z</time>
      </trkpt>
      <trkpt lat="42.84587" lon="2.60798">
        <ele>267.50587008275</ele>
        <time>2017-07-02T15:02:00Z</time>
      </trkpt>
      <trkpt lat="42.84633" lon="2.60821">
        <ele>260.84683934768</ele>
        <time>2017-07-02T15:03:44Z</time>
      </trkpt>
      <trkpt lat="42.84658" lon="2.60826">
        <ele>255.01458267334</ele>
        <time>2017-07-02T15:04:12Z</time>
      </trkpt>
      <trkpt lat="42.84659" lon="2.60826">
        <ele>255.01458267334</ele>
        <time>2017-07-02T15:04:14Z</time>
      </trkpt>
      <trkpt lat="42.84685" lon="2.60833">
        <ele>250.01671811396</ele>
        <time>2017-07-02T15:04:37Z</time>
      </trkpt>
      <trkpt lat="42.84762" lon="2.60914">
        <ele>245.20911528798</ele>
        <time>2017-07-02T15:06:56Z</time>
      </trkpt>
      <trkpt lat="42.84766" lon="2.60893">
        <ele>241.56493597177</ele>
        <time>2017-07-02T15:07:15Z</time>
      </trkpt>
      <trkpt lat="42.84767" lon="2.60886">
        <ele>241.56493597177</ele>
        <time>2017-07-02T15:07:15Z</time>
      </trkpt>
      <trkpt lat="42.84771" lon="2.60811">
        <ele>238.65651235567</ele>
        <time>2017-07-02T15:08:10Z</time>
      </trkpt>
      <trkpt lat="42.8477" lon="2.60805">
        <ele>238.65651235567</ele>
        <time>2017-07-02T15:08:14Z</time>
      </trkpt>
      <trkpt lat="42.84782" lon="2.6078">
        <ele>236.3591360298</ele>
        <time>2017-07-02T15:08:41Z</time>
      </trkpt>
      <trkpt lat="42.84796" lon="2.60774">
        <ele>234.49775045989</ele>
        <time>2017-07-02T15:09:07Z</time>
      </trkpt>
      <trkpt lat="42.84826" lon="2.60756">
        <ele>233.08177406344</ele>
        <time>2017-07-02T15:09:32Z</time>
      </trkpt>
      <trkpt lat="42.84851" lon="2.60746">
        <ele>232.10423394703</ele>
        <time>2017-07-02T15:09:51Z</time>
      </trkpt>
      <trkpt lat="42.84853" lon="2.60745">
        <ele>232.10423394703</ele>
        <time>2017-07-02T15:10:00Z</time>
      </trkpt>
      <trkpt lat="42.84857" lon="2.60744">
        <ele>232.10423394703</ele>
        <time>2017-07-02T15:10:00Z</time>
      </trkpt>
      <trkpt lat="42.84881" lon="2.60731">
        <ele>231.39893401163</ele>
        <time>2017-07-02T15:10:28Z</time>
      </trkpt>
      <trkpt lat="42.84912" lon="2.60717">
        <ele>230.99853903278</ele>
        <time>2017-07-02T15:10:58Z</time>
      </trkpt>
      <trkpt lat="42.84925" lon="2.60714">
        <ele>231.07669497474</ele>
        <time>2017-07-02T15:11:15Z</time>
      </trkpt>
      <trkpt lat="42.84932" lon="2.60716">
        <ele>231.07669497474</ele>
        <time>2017-07-02T15:11:15Z</time>
      </trkpt>
      <trkpt lat="42.84954" lon="2.60719">
        <ele>231.07256976642</ele>
        <time>2017-07-02T15:12:21Z</time>
      </trkpt>
      <trkpt lat="42.84956" lon="2.60721">
        <ele>231.07256976642</ele>
        <time>2017-07-02T15:12:24Z</time>
      </trkpt>
      <trkpt lat="42.84986" lon="2.6073">
        <ele>231.38929751954</ele>
        <time>2017-07-02T15:13:02Z</time>
      </trkpt>
      <trkpt lat="42.85025" lon="2.60728">
        <ele>232.02508173031</ele>
        <time>2017-07-02T15:13:39Z</time>
      </trkpt>
      <trkpt lat="42.8503" lon="2.60734">
        <ele>232.02508173031</ele>
        <time>2017-07-02T15:13:46Z</time>
      </trkpt>
      <trkpt lat="42.85038" lon="2.60751">
        <ele>232.68945721871</ele>
        <time>2017-07-02T15:14:07Z</time>
      </trkpt>
      <trkpt lat="42.85043" lon="2.60759">
        <ele>232.68945721871</ele>
        <time>2017-07-02T15:14:07Z</time>
      </trkpt>
      <trkpt lat="42.85051" lon="2.60766">
        <ele>233.60355226452</ele>
        <time>2017-07-02T15:14:16Z</time>
      </trkpt>
      <trkpt lat="42.85106" lon="2.60711">
        <ele>234.77019252444</ele>
        <time>2017-07-02T15:15:30Z</time>
      </trkpt>
      <trkpt lat="42.85112" lon="2.60635">
        <ele>236.4799447613</ele>
        <time>2017-07-02T15:16:25Z</time>
      </trkpt>
      <trkpt lat="42.85112" lon="2.60631">
        <ele>236.4799447613</ele>
        <time>2017-07-02T15:16:29Z</time>
      </trkpt>
      <trkpt lat="42.85109" lon="2.60586">
        <ele>238.75598901831</ele>
        <time>2017-07-02T15:17:05Z</time>
      </trkpt>
      <trkpt lat="42.85105" lon="2.60543">
        <ele>241.51784214567</ele>
        <time>2017-07-02T15:17:37Z</time>
      </trkpt>
      <trkpt lat="42.85104" lon="2.60542">
        <ele>241.51784214567</ele>
        <time>2017-07-02T15:17:40Z</time>
      </trkpt>
      <trkpt lat="42.85099" lon="2.60535">
        <ele>241.51784214567</ele>
        <time>2017-07-02T15:17:44Z</time>
      </trkpt>
      <trkpt lat="42.85097" lon="2.60534">
        <ele>244.47394435339</ele>
        <time>2017-07-02T15:19:05Z</time>
      </trkpt>
      <trkpt lat="42.85089" lon="2.60536">
        <ele>244.47394435339</ele>
        <time>2017-07-02T15:20:49Z</time>
      </trkpt>
    </trkseg>
  </trk>
</gpx>